sensor_id;sensor_type;location;lat;lon;timestamp;P1;durP1;ratioP1;P2;durP2;ratioP2
36355;SDS011;22384;54.302;18.596;2024-02-15T00:01:33;31.02;;;16.35;;
36355;SDS011;22384;54.302;18.596;2024-02-15T00:03:59;26.30;;;14.63;;
36355;SDS011;22384;54.302;18.596;2024-02-15T00:06:25;30.98;;;16.13;;
36355;SDS011;22384;54.302;18.596;2024-02-15T00:08:52;31.38;;;15.27;;
36355;SDS011;22384;54.302;18.596;2024-02-15T00:11:18;34.75;;;15.88;;
36355;SDS011;22384;54.302;18.596;2024-02-15T00:13:44;32.67;;;16.35;;
36355;SDS011;22384;54.302;18.596;2024-02-15T00:16:14;27.13;;;15.23;;
36355;SDS011;22384;54.302;18.596;2024-02-15T00:18:40;34.35;;;17.60;;
36355;SDS011;22384;54.302;18.596;2024-02-15T00:21:06;30.45;;;16.15;;
36355;SDS011;22384;54.302;18.596;2024-02-15T00:23:32;37.20;;;17.35;;
36355;SDS011;22384;54.302;18.596;2024-02-15T00:25:58;35.00;;;18.00;;
36355;SDS011;22384;54.302;18.596;2024-02-15T00:28:24;38.88;;;17.85;;
36355;SDS011;22384;54.302;18.596;2024-02-15T00:30:52;36.35;;;17.58;;
36355;SDS011;22384;54.302;18.596;2024-02-15T00:33:18;34.72;;;17.55;;
36355;SDS011;22384;54.302;18.596;2024-02-15T00:35:44;38.33;;;18.98;;
36355;SDS011;22384;54.302;18.596;2024-02-15T00:38:10;33.47;;;16.77;;
36355;SDS011;22384;54.302;18.596;2024-02-15T00:40:36;44.80;;;19.90;;
36355;SDS011;22384;54.302;18.596;2024-02-15T00:43:02;49.70;;;20.27;;
36355;SDS011;22384;54.302;18.596;2024-02-15T00:45:29;34.05;;;17.63;;
36355;SDS011;22384;54.302;18.596;2024-02-15T00:47:55;30.05;;;16.98;;
36355;SDS011;22384;54.302;18.596;2024-02-15T00:50:21;37.35;;;17.55;;
36355;SDS011;22384;54.302;18.596;2024-02-15T00:52:47;39.63;;;18.95;;
36355;SDS011;22384;54.302;18.596;2024-02-15T00:55:13;41.20;;;20.48;;
36355;SDS011;22384;54.302;18.596;2024-02-15T00:57:39;41.83;;;19.85;;
36355;SDS011;22384;54.302;18.596;2024-02-15T01:00:06;34.17;;;16.20;;
36355;SDS011;22384;54.302;18.596;2024-02-15T01:02:34;40.30;;;17.65;;
36355;SDS011;22384;54.302;18.596;2024-02-15T01:05:01;38.22;;;19.25;;
36355;SDS011;22384;54.302;18.596;2024-02-15T01:07:27;39.92;;;20.48;;
36355;SDS011;22384;54.302;18.596;2024-02-15T01:09:53;39.28;;;19.00;;
36355;SDS011;22384;54.302;18.596;2024-02-15T01:12:19;35.78;;;16.83;;
36355;SDS011;22384;54.302;18.596;2024-02-15T01:14:46;37.65;;;17.42;;
36355;SDS011;22384;54.302;18.596;2024-02-15T01:17:13;47.70;;;20.52;;
36355;SDS011;22384;54.302;18.596;2024-02-15T01:19:40;43.75;;;18.27;;
36355;SDS011;22384;54.302;18.596;2024-02-15T01:22:06;38.90;;;17.95;;
36355;SDS011;22384;54.302;18.596;2024-02-15T01:24:32;49.90;;;19.98;;
36355;SDS011;22384;54.302;18.596;2024-02-15T01:26:59;50.30;;;21.48;;
36355;SDS011;22384;54.302;18.596;2024-02-15T01:29:25;65.13;;;37.92;;
36355;SDS011;22384;54.302;18.596;2024-02-15T01:31:51;40.65;;;20.48;;
36355;SDS011;22384;54.302;18.596;2024-02-15T01:34:17;38.17;;;17.85;;
36355;SDS011;22384;54.302;18.596;2024-02-15T01:36:43;41.25;;;17.55;;
36355;SDS011;22384;54.302;18.596;2024-02-15T01:39:09;39.30;;;18.63;;
36355;SDS011;22384;54.302;18.596;2024-02-15T01:41:35;43.38;;;19.05;;
36355;SDS011;22384;54.302;18.596;2024-02-15T01:44:02;38.35;;;19.05;;
36355;SDS011;22384;54.302;18.596;2024-02-15T01:46:28;46.08;;;17.95;;
36355;SDS011;22384;54.302;18.596;2024-02-15T01:48:54;41.30;;;18.95;;
36355;SDS011;22384;54.302;18.596;2024-02-15T01:51:21;41.20;;;19.83;;
36355;SDS011;22384;54.302;18.596;2024-02-15T01:53:49;35.53;;;17.90;;
36355;SDS011;22384;54.302;18.596;2024-02-15T01:56:15;36.13;;;19.30;;
36355;SDS011;22384;54.302;18.596;2024-02-15T01:58:42;44.47;;;20.23;;
36355;SDS011;22384;54.302;18.596;2024-02-15T02:01:09;43.35;;;18.88;;
36355;SDS011;22384;54.302;18.596;2024-02-15T02:03:35;46.38;;;19.88;;
36355;SDS011;22384;54.302;18.596;2024-02-15T02:06:01;43.45;;;20.15;;
36355;SDS011;22384;54.302;18.596;2024-02-15T02:08:28;44.25;;;18.15;;
36355;SDS011;22384;54.302;18.596;2024-02-15T02:10:54;43.78;;;20.75;;
36355;SDS011;22384;54.302;18.596;2024-02-15T02:13:20;40.78;;;19.13;;
36355;SDS011;22384;54.302;18.596;2024-02-15T02:15:46;44.95;;;20.40;;
36355;SDS011;22384;54.302;18.596;2024-02-15T02:18:12;40.13;;;19.42;;
36355;SDS011;22384;54.302;18.596;2024-02-15T02:20:39;43.67;;;19.48;;
36355;SDS011;22384;54.302;18.596;2024-02-15T02:23:09;43.95;;;19.70;;
36355;SDS011;22384;54.302;18.596;2024-02-15T02:25:37;43.63;;;20.48;;
36355;SDS011;22384;54.302;18.596;2024-02-15T02:28:04;40.00;;;19.65;;
36355;SDS011;22384;54.302;18.596;2024-02-15T02:30:31;39.40;;;18.73;;
36355;SDS011;22384;54.302;18.596;2024-02-15T02:32:57;40.42;;;20.27;;
36355;SDS011;22384;54.302;18.596;2024-02-15T02:35:24;34.28;;;18.67;;
36355;SDS011;22384;54.302;18.596;2024-02-15T02:37:50;43.60;;;20.52;;
36355;SDS011;22384;54.302;18.596;2024-02-15T02:40:20;40.03;;;19.70;;
36355;SDS011;22384;54.302;18.596;2024-02-15T02:42:50;43.17;;;20.10;;
36355;SDS011;22384;54.302;18.596;2024-02-15T02:45:16;50.05;;;22.50;;
36355;SDS011;22384;54.302;18.596;2024-02-15T02:47:45;43.80;;;20.15;;
36355;SDS011;22384;54.302;18.596;2024-02-15T02:50:12;38.90;;;19.50;;
36355;SDS011;22384;54.302;18.596;2024-02-15T02:52:38;44.55;;;21.88;;
36355;SDS011;22384;54.302;18.596;2024-02-15T02:55:05;41.13;;;20.70;;
36355;SDS011;22384;54.302;18.596;2024-02-15T02:57:34;44.25;;;19.80;;
36355;SDS011;22384;54.302;18.596;2024-02-15T03:00:05;45.03;;;21.05;;
36355;SDS011;22384;54.302;18.596;2024-02-15T03:02:35;44.38;;;20.83;;
36355;SDS011;22384;54.302;18.596;2024-02-15T03:05:02;44.08;;;20.63;;
36355;SDS011;22384;54.302;18.596;2024-02-15T03:07:29;48.47;;;19.55;;
36355;SDS011;22384;54.302;18.596;2024-02-15T03:09:56;46.63;;;20.58;;
36355;SDS011;22384;54.302;18.596;2024-02-15T03:12:22;38.92;;;20.83;;
36355;SDS011;22384;54.302;18.596;2024-02-15T03:14:48;47.70;;;21.80;;
36355;SDS011;22384;54.302;18.596;2024-02-15T03:17:14;43.47;;;20.25;;
36355;SDS011;22384;54.302;18.596;2024-02-15T03:19:41;47.53;;;22.20;;
36355;SDS011;22384;54.302;18.596;2024-02-15T03:22:07;39.42;;;19.20;;
36355;SDS011;22384;54.302;18.596;2024-02-15T03:24:33;48.22;;;21.50;;
36355;SDS011;22384;54.302;18.596;2024-02-15T03:26:59;44.13;;;21.95;;
36355;SDS011;22384;54.302;18.596;2024-02-15T03:29:25;51.97;;;22.45;;
36355;SDS011;22384;54.302;18.596;2024-02-15T03:31:51;47.60;;;21.80;;
36355;SDS011;22384;54.302;18.596;2024-02-15T03:34:18;50.58;;;21.58;;
36355;SDS011;22384;54.302;18.596;2024-02-15T03:36:46;51.30;;;22.40;;
36355;SDS011;22384;54.302;18.596;2024-02-15T03:39:16;45.38;;;22.48;;
36355;SDS011;22384;54.302;18.596;2024-02-15T03:41:42;45.15;;;20.95;;
36355;SDS011;22384;54.302;18.596;2024-02-15T03:44:11;45.47;;;21.98;;
36355;SDS011;22384;54.302;18.596;2024-02-15T03:46:37;44.88;;;23.20;;
36355;SDS011;22384;54.302;18.596;2024-02-15T03:49:03;47.42;;;21.83;;
36355;SDS011;22384;54.302;18.596;2024-02-15T03:51:29;54.35;;;22.90;;
36355;SDS011;22384;54.302;18.596;2024-02-15T03:53:57;55.03;;;23.83;;
36355;SDS011;22384;54.302;18.596;2024-02-15T03:56:23;52.60;;;22.40;;
36355;SDS011;22384;54.302;18.596;2024-02-15T03:58:49;48.08;;;22.08;;
36355;SDS011;22384;54.302;18.596;2024-02-15T04:01:16;54.25;;;22.60;;
36355;SDS011;22384;54.302;18.596;2024-02-15T04:03:42;47.80;;;22.23;;
36355;SDS011;22384;54.302;18.596;2024-02-15T04:06:08;55.75;;;23.33;;
36355;SDS011;22384;54.302;18.596;2024-02-15T04:08:36;48.90;;;23.05;;
36355;SDS011;22384;54.302;18.596;2024-02-15T04:11:04;48.42;;;23.27;;
36355;SDS011;22384;54.302;18.596;2024-02-15T04:13:31;50.47;;;22.52;;
36355;SDS011;22384;54.302;18.596;2024-02-15T04:15:57;61.35;;;22.67;;
36355;SDS011;22384;54.302;18.596;2024-02-15T04:18:23;47.63;;;22.17;;
36355;SDS011;22384;54.302;18.596;2024-02-15T04:20:49;55.08;;;24.48;;
36355;SDS011;22384;54.302;18.596;2024-02-15T04:23:16;55.38;;;22.30;;
36355;SDS011;22384;54.302;18.596;2024-02-15T04:25:44;54.88;;;24.85;;
36355;SDS011;22384;54.302;18.596;2024-02-15T04:28:16;41.95;;;21.90;;
36355;SDS011;22384;54.302;18.596;2024-02-15T04:30:42;60.13;;;22.15;;
36355;SDS011;22384;54.302;18.596;2024-02-15T04:33:08;50.97;;;22.48;;
36355;SDS011;22384;54.302;18.596;2024-02-15T04:35:34;56.30;;;23.63;;
36355;SDS011;22384;54.302;18.596;2024-02-15T04:38:00;57.63;;;24.05;;
36355;SDS011;22384;54.302;18.596;2024-02-15T04:40:28;50.47;;;21.55;;
36355;SDS011;22384;54.302;18.596;2024-02-15T04:42:55;58.88;;;22.50;;
36355;SDS011;22384;54.302;18.596;2024-02-15T04:45:23;53.05;;;23.52;;
36355;SDS011;22384;54.302;18.596;2024-02-15T04:47:49;53.42;;;23.08;;
36355;SDS011;22384;54.302;18.596;2024-02-15T04:50:17;48.30;;;22.38;;
36355;SDS011;22384;54.302;18.596;2024-02-15T04:52:43;60.85;;;24.35;;
36355;SDS011;22384;54.302;18.596;2024-02-15T04:55:10;56.88;;;24.83;;
36355;SDS011;22384;54.302;18.596;2024-02-15T04:57:36;61.30;;;24.77;;
36355;SDS011;22384;54.302;18.596;2024-02-15T05:00:03;53.35;;;24.50;;
36355;SDS011;22384;54.302;18.596;2024-02-15T05:02:38;50.10;;;23.27;;
36355;SDS011;22384;54.302;18.596;2024-02-15T05:05:08;61.15;;;24.52;;
36355;SDS011;22384;54.302;18.596;2024-02-15T05:07:34;65.03;;;23.73;;
36355;SDS011;22384;54.302;18.596;2024-02-15T05:10:05;60.20;;;24.77;;
36355;SDS011;22384;54.302;18.596;2024-02-15T05:12:32;56.22;;;23.05;;
36355;SDS011;22384;54.302;18.596;2024-02-15T05:14:59;56.03;;;22.65;;
36355;SDS011;22384;54.302;18.596;2024-02-15T05:17:25;46.60;;;22.42;;
36355;SDS011;22384;54.302;18.596;2024-02-15T05:19:53;45.70;;;20.83;;
36355;SDS011;22384;54.302;18.596;2024-02-15T05:22:24;47.38;;;20.52;;
36355;SDS011;22384;54.302;18.596;2024-02-15T05:24:53;43.80;;;20.60;;
36355;SDS011;22384;54.302;18.596;2024-02-15T05:27:19;45.00;;;19.73;;
36355;SDS011;22384;54.302;18.596;2024-02-15T05:29:46;44.55;;;21.52;;
36355;SDS011;22384;54.302;18.596;2024-02-15T05:32:12;48.45;;;20.58;;
36355;SDS011;22384;54.302;18.596;2024-02-15T05:34:39;48.05;;;21.70;;
36355;SDS011;22384;54.302;18.596;2024-02-15T05:37:06;49.15;;;21.13;;
36355;SDS011;22384;54.302;18.596;2024-02-15T05:39:32;47.83;;;19.50;;
36355;SDS011;22384;54.302;18.596;2024-02-15T05:41:59;44.83;;;19.98;;
36355;SDS011;22384;54.302;18.596;2024-02-15T05:44:26;45.97;;;19.02;;
36355;SDS011;22384;54.302;18.596;2024-02-15T05:46:53;48.97;;;19.98;;
36355;SDS011;22384;54.302;18.596;2024-02-15T05:49:19;46.60;;;20.30;;
36355;SDS011;22384;54.302;18.596;2024-02-15T05:51:45;43.33;;;20.15;;
36355;SDS011;22384;54.302;18.596;2024-02-15T05:54:13;52.58;;;20.52;;
36355;SDS011;22384;54.302;18.596;2024-02-15T05:56:39;49.10;;;20.75;;
36355;SDS011;22384;54.302;18.596;2024-02-15T05:59:05;49.00;;;21.42;;
36355;SDS011;22384;54.302;18.596;2024-02-15T06:01:38;49.22;;;21.27;;
36355;SDS011;22384;54.302;18.596;2024-02-15T06:04:06;54.72;;;21.38;;
36355;SDS011;22384;54.302;18.596;2024-02-15T06:06:34;48.45;;;21.90;;
36355;SDS011;22384;54.302;18.596;2024-02-15T06:09:00;43.08;;;20.10;;
36355;SDS011;22384;54.302;18.596;2024-02-15T06:11:27;40.03;;;17.80;;
36355;SDS011;22384;54.302;18.596;2024-02-15T06:13:54;45.80;;;18.55;;
36355;SDS011;22384;54.302;18.596;2024-02-15T06:16:20;42.15;;;17.70;;
36355;SDS011;22384;54.302;18.596;2024-02-15T06:18:46;39.15;;;17.98;;
36355;SDS011;22384;54.302;18.596;2024-02-15T06:21:15;38.72;;;18.45;;
36355;SDS011;22384;54.302;18.596;2024-02-15T06:23:43;41.08;;;17.88;;
36355;SDS011;22384;54.302;18.596;2024-02-15T06:26:10;41.92;;;18.50;;
36355;SDS011;22384;54.302;18.596;2024-02-15T06:28:36;47.05;;;19.63;;
36355;SDS011;22384;54.302;18.596;2024-02-15T06:31:20;43.97;;;18.98;;
36355;SDS011;22384;54.302;18.596;2024-02-15T06:34:05;44.22;;;19.23;;
36355;SDS011;22384;54.302;18.596;2024-02-15T06:36:50;41.80;;;19.38;;
36355;SDS011;22384;54.302;18.596;2024-02-15T06:39:35;45.88;;;19.77;;
36355;SDS011;22384;54.302;18.596;2024-02-15T06:42:09;41.75;;;19.35;;
36355;SDS011;22384;54.302;18.596;2024-02-15T06:44:36;38.10;;;17.75;;
36355;SDS011;22384;54.302;18.596;2024-02-15T06:47:05;38.78;;;18.33;;
36355;SDS011;22384;54.302;18.596;2024-02-15T06:49:31;41.58;;;18.70;;
36355;SDS011;22384;54.302;18.596;2024-02-15T06:52:00;44.58;;;18.83;;
36355;SDS011;22384;54.302;18.596;2024-02-15T06:54:27;38.80;;;17.42;;
36355;SDS011;22384;54.302;18.596;2024-02-15T07:02:59;45.35;;;18.15;;
36355;SDS011;22384;54.302;18.596;2024-02-15T07:05:44;45.75;;;17.85;;
36355;SDS011;22384;54.302;18.596;2024-02-15T07:14:19;46.40;;;19.98;;
36355;SDS011;22384;54.302;18.596;2024-02-15T07:16:46;48.30;;;20.13;;
36355;SDS011;22384;54.302;18.596;2024-02-15T07:19:12;40.97;;;17.80;;
36355;SDS011;22384;54.302;18.596;2024-02-15T07:21:39;46.33;;;18.55;;
36355;SDS011;22384;54.302;18.596;2024-02-15T07:24:05;40.25;;;19.90;;
36355;SDS011;22384;54.302;18.596;2024-02-15T07:26:31;45.42;;;19.83;;
36355;SDS011;22384;54.302;18.596;2024-02-15T07:29:00;47.08;;;20.23;;
36355;SDS011;22384;54.302;18.596;2024-02-15T07:31:29;42.05;;;19.35;;
36355;SDS011;22384;54.302;18.596;2024-02-15T07:33:55;45.40;;;19.77;;
36355;SDS011;22384;54.302;18.596;2024-02-15T07:36:21;46.72;;;20.40;;
36355;SDS011;22384;54.302;18.596;2024-02-15T07:38:48;43.00;;;19.27;;
36355;SDS011;22384;54.302;18.596;2024-02-15T07:41:15;43.53;;;19.50;;
36355;SDS011;22384;54.302;18.596;2024-02-15T07:43:42;57.55;;;22.10;;
36355;SDS011;22384;54.302;18.596;2024-02-15T07:46:13;53.58;;;20.42;;
36355;SDS011;22384;54.302;18.596;2024-02-15T07:48:39;47.72;;;19.77;;
36355;SDS011;22384;54.302;18.596;2024-02-15T07:51:10;38.17;;;17.00;;
36355;SDS011;22384;54.302;18.596;2024-02-15T07:53:36;43.72;;;17.20;;
36355;SDS011;22384;54.302;18.596;2024-02-15T07:56:02;38.33;;;16.65;;
36355;SDS011;22384;54.302;18.596;2024-02-15T07:58:28;39.92;;;16.90;;
36355;SDS011;22384;54.302;18.596;2024-02-15T08:00:56;40.10;;;19.42;;
36355;SDS011;22384;54.302;18.596;2024-02-15T08:03:22;39.03;;;17.05;;
36355;SDS011;22384;54.302;18.596;2024-02-15T08:05:48;33.20;;;16.45;;
36355;SDS011;22384;54.302;18.596;2024-02-15T08:08:14;30.95;;;15.32;;
36355;SDS011;22384;54.302;18.596;2024-02-15T08:10:41;32.35;;;15.13;;
36355;SDS011;22384;54.302;18.596;2024-02-15T08:13:08;30.98;;;15.02;;
36355;SDS011;22384;54.302;18.596;2024-02-15T08:15:35;32.92;;;15.57;;
36355;SDS011;22384;54.302;18.596;2024-02-15T08:18:01;32.45;;;14.50;;
36355;SDS011;22384;54.302;18.596;2024-02-15T08:20:30;34.63;;;15.90;;
36355;SDS011;22384;54.302;18.596;2024-02-15T08:22:58;33.67;;;16.17;;
36355;SDS011;22384;54.302;18.596;2024-02-15T08:25:24;39.95;;;17.30;;
36355;SDS011;22384;54.302;18.596;2024-02-15T08:27:50;34.60;;;15.32;;
36355;SDS011;22384;54.302;18.596;2024-02-15T08:30:16;39.25;;;18.20;;
36355;SDS011;22384;54.302;18.596;2024-02-15T08:32:43;39.78;;;17.27;;
36355;SDS011;22384;54.302;18.596;2024-02-15T08:35:13;40.75;;;16.98;;
36355;SDS011;22384;54.302;18.596;2024-02-15T08:37:40;46.10;;;18.17;;
36355;SDS011;22384;54.302;18.596;2024-02-15T08:40:08;47.78;;;19.55;;
36355;SDS011;22384;54.302;18.596;2024-02-15T08:42:40;53.58;;;19.83;;
36355;SDS011;22384;54.302;18.596;2024-02-15T08:45:07;45.58;;;20.52;;
36355;SDS011;22384;54.302;18.596;2024-02-15T08:47:36;44.00;;;18.92;;
36355;SDS011;22384;54.302;18.596;2024-02-15T08:50:03;42.15;;;18.77;;
36355;SDS011;22384;54.302;18.596;2024-02-15T08:52:29;44.60;;;19.40;;
36355;SDS011;22384;54.302;18.596;2024-02-15T08:54:55;39.50;;;17.45;;
36355;SDS011;22384;54.302;18.596;2024-02-15T08:57:23;47.47;;;17.35;;
36355;SDS011;22384;54.302;18.596;2024-02-15T08:59:50;40.72;;;16.63;;
36355;SDS011;22384;54.302;18.596;2024-02-15T09:02:17;53.67;;;19.88;;
36355;SDS011;22384;54.302;18.596;2024-02-15T09:04:43;50.15;;;20.23;;
36355;SDS011;22384;54.302;18.596;2024-02-15T09:07:09;46.65;;;18.92;;
36355;SDS011;22384;54.302;18.596;2024-02-15T09:09:35;35.55;;;17.95;;
36355;SDS011;22384;54.302;18.596;2024-02-15T09:12:05;43.03;;;17.20;;
36355;SDS011;22384;54.302;18.596;2024-02-15T09:14:34;40.45;;;16.20;;
36355;SDS011;22384;54.302;18.596;2024-02-15T09:17:01;38.45;;;15.52;;
36355;SDS011;22384;54.302;18.596;2024-02-15T09:19:35;33.30;;;15.02;;
36355;SDS011;22384;54.302;18.596;2024-02-15T09:22:04;41.90;;;16.33;;
36355;SDS011;22384;54.302;18.596;2024-02-15T09:24:31;40.03;;;16.67;;
36355;SDS011;22384;54.302;18.596;2024-02-15T09:27:03;30.40;;;14.27;;
36355;SDS011;22384;54.302;18.596;2024-02-15T09:29:29;33.78;;;14.73;;
36355;SDS011;22384;54.302;18.596;2024-02-15T09:31:57;36.65;;;15.35;;
36355;SDS011;22384;54.302;18.596;2024-02-15T09:34:23;32.35;;;14.27;;
36355;SDS011;22384;54.302;18.596;2024-02-15T09:36:50;32.30;;;14.15;;
36355;SDS011;22384;54.302;18.596;2024-02-15T09:39:16;33.75;;;16.45;;
36355;SDS011;22384;54.302;18.596;2024-02-15T09:41:43;31.63;;;14.20;;
36355;SDS011;22384;54.302;18.596;2024-02-15T09:44:09;33.47;;;15.75;;
36355;SDS011;22384;54.302;18.596;2024-02-15T09:46:42;37.88;;;16.02;;
36355;SDS011;22384;54.302;18.596;2024-02-15T09:49:10;37.05;;;16.77;;
36355;SDS011;22384;54.302;18.596;2024-02-15T09:51:37;38.28;;;17.20;;
36355;SDS011;22384;54.302;18.596;2024-02-15T09:54:03;38.67;;;17.08;;
36355;SDS011;22384;54.302;18.596;2024-02-15T09:56:30;38.80;;;16.38;;
36355;SDS011;22384;54.302;18.596;2024-02-15T09:58:59;33.83;;;16.15;;
36355;SDS011;22384;54.302;18.596;2024-02-15T10:01:26;40.92;;;16.55;;
36355;SDS011;22384;54.302;18.596;2024-02-15T10:03:53;39.15;;;17.52;;
36355;SDS011;22384;54.302;18.596;2024-02-15T10:06:20;42.10;;;18.85;;
36355;SDS011;22384;54.302;18.596;2024-02-15T10:08:46;42.60;;;17.08;;
36355;SDS011;22384;54.302;18.596;2024-02-15T10:11:12;44.92;;;18.75;;
36355;SDS011;22384;54.302;18.596;2024-02-15T10:13:38;35.00;;;16.27;;
36355;SDS011;22384;54.302;18.596;2024-02-15T10:18:40;31.80;;;16.40;;
36355;SDS011;22384;54.302;18.596;2024-02-15T10:21:06;34.15;;;14.88;;
36355;SDS011;22384;54.302;18.596;2024-02-15T10:23:32;30.20;;;15.32;;
36355;SDS011;22384;54.302;18.596;2024-02-15T10:25:59;35.92;;;16.35;;
36355;SDS011;22384;54.302;18.596;2024-02-15T10:28:27;34.03;;;16.83;;
36355;SDS011;22384;54.302;18.596;2024-02-15T10:30:54;44.47;;;17.08;;
36355;SDS011;22384;54.302;18.596;2024-02-15T10:35:46;45.67;;;19.42;;
36355;SDS011;22384;54.302;18.596;2024-02-15T10:38:12;42.60;;;18.15;;
36355;SDS011;22384;54.302;18.596;2024-02-15T10:40:38;32.25;;;14.45;;
36355;SDS011;22384;54.302;18.596;2024-02-15T10:43:07;32.25;;;16.15;;
36355;SDS011;22384;54.302;18.596;2024-02-15T10:45:36;32.33;;;16.05;;
36355;SDS011;22384;54.302;18.596;2024-02-15T10:48:05;30.08;;;14.40;;
36355;SDS011;22384;54.302;18.596;2024-02-15T10:50:31;32.15;;;14.25;;
36355;SDS011;22384;54.302;18.596;2024-02-15T10:52:58;33.65;;;16.85;;
36355;SDS011;22384;54.302;18.596;2024-02-15T10:58:09;29.52;;;14.63;;
36355;SDS011;22384;54.302;18.596;2024-02-15T11:00:36;34.42;;;16.33;;
36355;SDS011;22384;54.302;18.596;2024-02-15T11:03:05;31.95;;;16.17;;
36355;SDS011;22384;54.302;18.596;2024-02-15T11:05:36;36.15;;;17.25;;
36355;SDS011;22384;54.302;18.596;2024-02-15T11:08:07;33.17;;;17.13;;
36355;SDS011;22384;54.302;18.596;2024-02-15T11:10:34;34.83;;;17.55;;
36355;SDS011;22384;54.302;18.596;2024-02-15T11:13:00;36.88;;;18.30;;
36355;SDS011;22384;54.302;18.596;2024-02-15T11:15:40;36.88;;;20.27;;
36355;SDS011;22384;54.302;18.596;2024-02-15T11:18:07;37.83;;;19.85;;
36355;SDS011;22384;54.302;18.596;2024-02-15T11:22:59;35.90;;;19.90;;
36355;SDS011;22384;54.302;18.596;2024-02-15T11:25:32;40.65;;;20.30;;
36355;SDS011;22384;54.302;18.596;2024-02-15T11:30:45;32.42;;;17.48;;
36355;SDS011;22384;54.302;18.596;2024-02-15T11:33:30;30.90;;;16.85;;
36355;SDS011;22384;54.302;18.596;2024-02-15T11:36:06;33.67;;;17.10;;
36355;SDS011;22384;54.302;18.596;2024-02-15T11:38:36;44.42;;;20.15;;
36355;SDS011;22384;54.302;18.596;2024-02-15T11:41:05;40.03;;;18.92;;
36355;SDS011;22384;54.302;18.596;2024-02-15T11:46:11;35.58;;;18.27;;
36355;SDS011;22384;54.302;18.596;2024-02-15T11:48:42;38.13;;;17.75;;
36355;SDS011;22384;54.302;18.596;2024-02-15T11:51:09;32.83;;;17.50;;
36355;SDS011;22384;54.302;18.596;2024-02-15T11:53:36;35.47;;;17.55;;
36355;SDS011;22384;54.302;18.596;2024-02-15T11:56:03;38.13;;;18.85;;
36355;SDS011;22384;54.302;18.596;2024-02-15T11:58:30;38.60;;;19.40;;
36355;SDS011;22384;54.302;18.596;2024-02-15T12:01:17;36.95;;;18.20;;
36355;SDS011;22384;54.302;18.596;2024-02-15T12:04:01;39.10;;;20.45;;
36355;SDS011;22384;54.302;18.596;2024-02-15T12:06:46;40.92;;;21.08;;
36355;SDS011;22384;54.302;18.596;2024-02-15T12:09:31;34.42;;;18.05;;
36355;SDS011;22384;54.302;18.596;2024-02-15T12:12:15;38.53;;;18.88;;
36355;SDS011;22384;54.302;18.596;2024-02-15T12:15:00;42.22;;;18.30;;
36355;SDS011;22384;54.302;18.596;2024-02-15T12:17:45;34.47;;;17.75;;
36355;SDS011;22384;54.302;18.596;2024-02-15T12:20:30;35.25;;;18.15;;
36355;SDS011;22384;54.302;18.596;2024-02-15T12:22:57;38.67;;;18.70;;
36355;SDS011;22384;54.302;18.596;2024-02-15T12:25:26;37.38;;;19.77;;
36355;SDS011;22384;54.302;18.596;2024-02-15T12:27:53;34.50;;;18.75;;
36355;SDS011;22384;54.302;18.596;2024-02-15T12:30:19;36.10;;;19.30;;
36355;SDS011;22384;54.302;18.596;2024-02-15T12:32:47;37.38;;;20.17;;
36355;SDS011;22384;54.302;18.596;2024-02-15T12:35:13;30.35;;;18.15;;
36355;SDS011;22384;54.302;18.596;2024-02-15T12:40:37;34.08;;;17.80;;
36355;SDS011;22384;54.302;18.596;2024-02-15T12:43:06;32.47;;;18.08;;
36355;SDS011;22384;54.302;18.596;2024-02-15T12:45:35;33.03;;;18.23;;
36355;SDS011;22384;54.302;18.596;2024-02-15T12:48:03;30.60;;;18.15;;
36355;SDS011;22384;54.302;18.596;2024-02-15T12:50:29;33.65;;;17.85;;
36355;SDS011;22384;54.302;18.596;2024-02-15T12:52:56;30.70;;;17.52;;
36355;SDS011;22384;54.302;18.596;2024-02-15T12:55:28;35.88;;;19.73;;
36355;SDS011;22384;54.302;18.596;2024-02-15T12:57:55;31.65;;;18.27;;
36355;SDS011;22384;54.302;18.596;2024-02-15T13:00:25;34.90;;;18.33;;
36355;SDS011;22384;54.302;18.596;2024-02-15T13:02:54;32.85;;;18.17;;
36355;SDS011;22384;54.302;18.596;2024-02-15T13:05:21;30.25;;;17.33;;
36355;SDS011;22384;54.302;18.596;2024-02-15T13:07:49;30.10;;;16.75;;
36355;SDS011;22384;54.302;18.596;2024-02-15T13:10:15;31.10;;;16.33;;
36355;SDS011;22384;54.302;18.596;2024-02-15T13:12:41;28.83;;;17.25;;
36355;SDS011;22384;54.302;18.596;2024-02-15T13:15:09;34.22;;;17.35;;
36355;SDS011;22384;54.302;18.596;2024-02-15T13:17:45;32.22;;;17.55;;
36355;SDS011;22384;54.302;18.596;2024-02-15T13:20:12;30.75;;;17.63;;
36355;SDS011;22384;54.302;18.596;2024-02-15T13:22:39;32.67;;;17.42;;
36355;SDS011;22384;54.302;18.596;2024-02-15T13:25:06;36.10;;;18.00;;
36355;SDS011;22384;54.302;18.596;2024-02-15T13:27:35;29.37;;;16.07;;
36355;SDS011;22384;54.302;18.596;2024-02-15T13:30:05;27.35;;;16.02;;
36355;SDS011;22384;54.302;18.596;2024-02-15T13:32:35;30.60;;;15.65;;
36355;SDS011;22384;54.302;18.596;2024-02-15T13:35:01;28.73;;;14.95;;
36355;SDS011;22384;54.302;18.596;2024-02-15T13:37:32;28.23;;;15.45;;
36355;SDS011;22384;54.302;18.596;2024-02-15T13:39:58;23.83;;;13.25;;
36355;SDS011;22384;54.302;18.596;2024-02-15T13:42:24;20.80;;;11.98;;
36355;SDS011;22384;54.302;18.596;2024-02-15T13:44:51;17.30;;;9.95;;
36355;SDS011;22384;54.302;18.596;2024-02-15T13:47:17;17.20;;;10.05;;
36355;SDS011;22384;54.302;18.596;2024-02-15T13:49:43;15.93;;;9.25;;
36355;SDS011;22384;54.302;18.596;2024-02-15T13:52:09;15.02;;;9.15;;
36355;SDS011;22384;54.302;18.596;2024-02-15T13:54:36;128.68;;;80.32;;
36355;SDS011;22384;54.302;18.596;2024-02-15T13:57:02;40.08;;;27.08;;
36355;SDS011;22384;54.302;18.596;2024-02-15T13:59:28;18.85;;;12.77;;
36355;SDS011;22384;54.302;18.596;2024-02-15T14:01:55;17.67;;;9.82;;
36355;SDS011;22384;54.302;18.596;2024-02-15T14:04:21;19.85;;;10.45;;
36355;SDS011;22384;54.302;18.596;2024-02-15T14:06:47;16.13;;;10.15;;
36355;SDS011;22384;54.302;18.596;2024-02-15T14:09:13;18.33;;;9.85;;
36355;SDS011;22384;54.302;18.596;2024-02-15T14:11:42;17.10;;;10.10;;
36355;SDS011;22384;54.302;18.596;2024-02-15T14:14:08;19.42;;;10.18;;
36355;SDS011;22384;54.302;18.596;2024-02-15T14:16:34;17.73;;;9.77;;
36355;SDS011;22384;54.302;18.596;2024-02-15T14:19:00;18.92;;;10.52;;
36355;SDS011;22384;54.302;18.596;2024-02-15T14:21:28;18.30;;;10.40;;
36355;SDS011;22384;54.302;18.596;2024-02-15T14:23:57;16.55;;;9.90;;
36355;SDS011;22384;54.302;18.596;2024-02-15T14:26:24;19.75;;;11.00;;
36355;SDS011;22384;54.302;18.596;2024-02-15T14:28:52;24.98;;;13.27;;
36355;SDS011;22384;54.302;18.596;2024-02-15T14:31:18;22.00;;;11.43;;
36355;SDS011;22384;54.302;18.596;2024-02-15T14:34:02;17.52;;;11.25;;
36355;SDS011;22384;54.302;18.596;2024-02-15T14:36:29;15.65;;;10.90;;
36355;SDS011;22384;54.302;18.596;2024-02-15T14:38:55;22.30;;;14.43;;
36355;SDS011;22384;54.302;18.596;2024-02-15T14:41:21;18.17;;;12.88;;
36355;SDS011;22384;54.302;18.596;2024-02-15T14:43:48;16.83;;;10.57;;